Aérodrome :
LOGIN :

S'inscrire | Disclaimer

   EN    FR    IT 

 










Légende :    VFR   VFR Marginal   IFR   IFR Intensif   IFR Très Intensif
Visi : 
Plafond : 
>= 8 km
>= 3000ft
5 à 8 km
1000 à 3000 ft
1500m à 5 km
500 à 1000 ft
800 à 1500m
200 à 500 ft
< 800m
< 200 ft
Symboles :   Orages  Brouillard  Fortes neiges  Fortes précipitations  Vent > 20 kt
SIGMETs :   Divers  Orages  Givrage  Turbulence  Onde Orograph.  Cendres Volcan.







- Altitude de l'aérodrome : 408 ft
- Code IATA : FKB


EDSB - Karlsruhe Baden Baden

DERNIER METAR :
  • 212350Z AUTO VRB02KT 9000 SCT024/// BKN031/// OVC037/// 03/01 Q1013

METARs EXPIRÉS :
  • 212320Z AUTO 24003KT 9999 BKN036/// OVC041/// 03/01 Q1013
  • 212250Z 22005KT 7000 -RA FEW038 BKN045 OVC051 03/01 Q1014
  • 212220Z 20008KT 9999 -RA FEW036 OVC047 03/00 Q1015
  • 212150Z 19007KT 9999 FEW028 OVC039 04/00 Q1015
  • 212120Z 21007KT 9999 FEW028 BKN050 OVC062 03/01 Q1016

TAF TAF EDSB
Valide du 21 à 18h jusqu'au 22 à 18h UTC


211700Z 2118/2218 19005KT 9999 SCT035
TEMPO 2121/2210 3000 RA BR BKN009
TEMPO 2210/2218 BKN012
Pas de NOTAMs connus pour ce terrain.
1 SIGMET publié pour la FIR Langen (EDGG) :
 
Givrage fort
EDGG SIGMET 4 VALID 220000/220200 EDZF
EDGG LANGEN FIR SEV ICE FCST W OF E00930 3000FT/FL150 MOV NE NC=



MET'MAP, la Météo Aéronautique d'un coup d'oeil ! - Copyright ORBIFLY Décembre 2007 - Disclaimer

ORBIFLY MET'MAP TEAM :

Programmation & Développement : Alexandra Zaïnal
Conception & Développement : Baudouin d'Aumeries
Co-Programmation & Développement : Marc-Olivier Méhu
Soutien technique & logistique : Manuel Goepfert

Contact : metmap@orbifly.com




SOURCES & CREDITS :

   NOAA